METAR Data
IDs: Format: Raw Decoded Include TAF

Data at: 1602 UTC 30 Oct 2020

METAR for:KCVO (Corvallis Muni, OR, US)
Text:KCVO 301556Z AUTO 00000KT 10SM OVC003 07/07 A3014 RMK AO2 SLP210 T00670067
Temperature: 6.7°C ( 44°F)
Dewpoint: 6.7°C ( 44°F) [RH = 100%]
Pressure (altimeter):30.14 inches Hg (1020.7 mb) [Sea level pressure: 1021.0 mb]
Winds:calm
Visibility:10 or more sm (16+ km)
Ceiling:300 feet AGL
Clouds: overcast cloud deck at 300 feet AGL
QC Flag:automated observation with no human augmentation
Text:KCVO 301456Z AUTO 16006KT 10SM OVC003 06/06 A3013 RMK AO2 SLP204 T00610061 50006
Temperature: 6.1°C ( 43°F)
Dewpoint: 6.1°C ( 43°F) [RH = 100%]
Pressure (altimeter):30.13 inches Hg (1020.4 mb) [Sea level pressure: 1020.4 mb]
Winds:from the SSE (160 degrees) at 7 MPH (6 knots; 3.1 m/s)
Visibility:10 or more sm (16+ km)
Ceiling:300 feet AGL
Clouds: overcast cloud deck at 300 feet AGL
QC Flag:automated observation with no human augmentation
Text:KCVO 301443Z AUTO 17004KT 10SM OVC003 06/06 A3014 RMK AO2
Temperature: 6.0°C ( 43°F)
Dewpoint: 6.0°C ( 43°F) [RH = 100%]
Pressure (altimeter):30.14 inches Hg (1020.7 mb)
Winds:from the S (170 degrees) at 5 MPH (4 knots; 2.1 m/s)
Visibility:10 or more sm (16+ km)
Ceiling:300 feet AGL
Clouds: overcast cloud deck at 300 feet AGL
QC Flag:automated observation with no human augmentation
Text:KCVO 301427Z AUTO 18005KT 3SM BR OVC001 06/06 A3014 RMK AO2
Temperature: 6.0°C ( 43°F)
Dewpoint: 6.0°C ( 43°F) [RH = 100%]
Pressure (altimeter):30.14 inches Hg (1020.7 mb)
Winds:from the S (180 degrees) at 6 MPH (5 knots; 2.6 m/s)
Visibility: 3 sm ( 5 km)
Ceiling:100 feet AGL
Clouds: overcast cloud deck at 100 feet AGL
Weather:BR (mist)
QC Flag:automated observation with no human augmentation
Text:KCVO 301422Z AUTO 18005KT 1 1/4SM BR OVC001 06/06 A3013 RMK AO2 VIS 3/4V4
Temperature: 6.0°C ( 43°F)
Dewpoint: 6.0°C ( 43°F) [RH = 100%]
Pressure (altimeter):30.13 inches Hg (1020.4 mb)
Winds:from the S (180 degrees) at 6 MPH (5 knots; 2.6 m/s)
Visibility: 1.25 sm ( 2.01 km)
Ceiling:100 feet AGL
Clouds: overcast cloud deck at 100 feet AGL
Weather:BR (mist)
QC Flag:automated observation with no human augmentation
Text:KCVO 301415Z AUTO 17004KT 3/4SM BR OVC001 06/06 A3013 RMK AO2 RVRNO
Temperature: 6.0°C ( 43°F)
Dewpoint: 6.0°C ( 43°F) [RH = 100%]
Pressure (altimeter):30.13 inches Hg (1020.4 mb)
Winds:from the S (170 degrees) at 5 MPH (4 knots; 2.1 m/s)
Visibility: 0.75 sm ( 1.21 km)
Ceiling:100 feet AGL
Clouds: overcast cloud deck at 100 feet AGL
Weather:BR (mist)
QC Flag:automated observation with no human augmentation
Text:KCVO 301403Z AUTO 16005KT 1 3/4SM BR OVC001 06/06 A3013 RMK AO2
Temperature: 6.0°C ( 43°F)
Dewpoint: 6.0°C ( 43°F) [RH = 100%]
Pressure (altimeter):30.13 inches Hg (1020.4 mb)
Winds:from the SSE (160 degrees) at 6 MPH (5 knots; 2.6 m/s)
Visibility: 1.75 sm ( 2.82 km)
Ceiling:100 feet AGL
Clouds: overcast cloud deck at 100 feet AGL
Weather:BR (mist)
QC Flag:automated observation with no human augmentation
Text:KCVO 301356Z AUTO 18004KT 1SM BR OVC001 06/06 A3014 RMK AO2 SLP206 T00610061 RVRNO
Temperature: 6.1°C ( 43°F)
Dewpoint: 6.1°C ( 43°F) [RH = 100%]
Pressure (altimeter):30.14 inches Hg (1020.7 mb) [Sea level pressure: 1020.6 mb]
Winds:from the S (180 degrees) at 5 MPH (4 knots; 2.1 m/s)
Visibility: 1.00 sm ( 1.61 km)
Ceiling:100 feet AGL
Clouds: overcast cloud deck at 100 feet AGL
Weather:BR (mist)
QC Flag:automated observation with no human augmentation
Text:KCVO 301350Z AUTO 18003KT 1SM BR OVC001 06/06 A3014 RMK AO2 RVRNO
Temperature: 6.0°C ( 43°F)
Dewpoint: 6.0°C ( 43°F) [RH = 100%]
Pressure (altimeter):30.14 inches Hg (1020.7 mb)
Winds:from the S (180 degrees) at 3 MPH (3 knots; 1.5 m/s)
Visibility: 1.00 sm ( 1.61 km)
Ceiling:100 feet AGL
Clouds: overcast cloud deck at 100 feet AGL
Weather:BR (mist)
QC Flag:automated observation with no human augmentation
Text:KCVO 301334Z AUTO 16003KT 1/2SM FG OVC001 06/06 A3013 RMK AO2 RVRNO
Temperature: 6.0°C ( 43°F)
Dewpoint: 6.0°C ( 43°F) [RH = 100%]
Pressure (altimeter):30.13 inches Hg (1020.4 mb)
Winds:from the SSE (160 degrees) at 3 MPH (3 knots; 1.5 m/s)
Visibility: 0.50 sm ( 0.80 km)
Ceiling:100 feet AGL
Clouds: overcast cloud deck at 100 feet AGL
Weather:FG (fog)
QC Flag:automated observation with no human augmentation
Text:KCVO 301256Z AUTO 16003KT 1/4SM FG OVC001 06/06 A3013 RMK AO2 SLP203 T00610061 RVRNO
Temperature: 6.1°C ( 43°F)
Dewpoint: 6.1°C ( 43°F) [RH = 100%]
Pressure (altimeter):30.13 inches Hg (1020.4 mb) [Sea level pressure: 1020.3 mb]
Winds:from the SSE (160 degrees) at 3 MPH (3 knots; 1.5 m/s)
Visibility: 0.25 sm ( 0.40 km)
Ceiling:100 feet AGL
Clouds: overcast cloud deck at 100 feet AGL
Weather:FG (fog)
QC Flag:automated observation with no human augmentation
Text:KCVO 301156Z AUTO 00000KT 1/4SM FG OVC001 06/06 A3011 RMK AO2 SLP196 60000 T00610061 10083 20061 53008 RVRNO
Temperature: 6.1°C ( 43°F)
Dewpoint: 6.1°C ( 43°F) [RH = 100%]
Pressure (altimeter):30.11 inches Hg (1019.7 mb) [Sea level pressure: 1019.6 mb]
Winds:calm
Visibility: 0.25 sm ( 0.40 km)
Ceiling:100 feet AGL
Clouds: overcast cloud deck at 100 feet AGL
Weather:FG (fog)
QC Flag:automated observation with no human augmentation
Text:KCVO 301151Z AUTO 18003KT 1/4SM FG OVC001 06/06 A3010 RMK AO2 RVRNO
Temperature: 6.0°C ( 43°F)
Dewpoint: 6.0°C ( 43°F) [RH = 100%]
Pressure (altimeter):30.10 inches Hg (1019.4 mb)
Winds:from the S (180 degrees) at 3 MPH (3 knots; 1.5 m/s)
Visibility: 0.25 sm ( 0.40 km)
Ceiling:100 feet AGL
Clouds: overcast cloud deck at 100 feet AGL
Weather:FG (fog)
QC Flag:automated observation with no human augmentation
Text:KCVO 301056Z AUTO 16004KT 1/4SM FG OVC003 07/07 A3008 RMK AO2 RAB28E41 SLP186 P0000 T00670067 RVRNO
Temperature: 6.7°C ( 44°F)
Dewpoint: 6.7°C ( 44°F) [RH = 100%]
Pressure (altimeter):30.08 inches Hg (1018.7 mb) [Sea level pressure: 1018.6 mb]
Winds:from the SSE (160 degrees) at 5 MPH (4 knots; 2.1 m/s)
Visibility: 0.25 sm ( 0.40 km)
Ceiling:300 feet AGL
Clouds: overcast cloud deck at 300 feet AGL
Weather:FG (fog)
QC Flag:automated observation with no human augmentation
Text:KCVO 300956Z AUTO 17005KT 1/4SM FG OVC003 08/07 A3008 RMK AO2 SLP188 T00780072 RVRNO
Temperature: 7.8°C ( 46°F)
Dewpoint: 7.2°C ( 45°F) [RH = 96%]
Pressure (altimeter):30.08 inches Hg (1018.7 mb) [Sea level pressure: 1018.8 mb]
Winds:from the S (170 degrees) at 6 MPH (5 knots; 2.6 m/s)
Visibility: 0.25 sm ( 0.40 km)
Ceiling:300 feet AGL
Clouds: overcast cloud deck at 300 feet AGL
Weather:FG (fog)
QC Flag:automated observation with no human augmentation
Text:KCVO 300856Z AUTO 00000KT 1/4SM FG OVC003 08/08 A3007 RMK AO2 SLP185 60000 T00780078 53001 RVRNO
Temperature: 7.8°C ( 46°F)
Dewpoint: 7.8°C ( 46°F) [RH = 100%]
Pressure (altimeter):30.07 inches Hg (1018.4 mb) [Sea level pressure: 1018.5 mb]
Winds:calm
Visibility: 0.25 sm ( 0.40 km)
Ceiling:300 feet AGL
Clouds: overcast cloud deck at 300 feet AGL
Weather:FG (fog)
QC Flag:automated observation with no human augmentation
Text:KCVO 300816Z AUTO 19005KT 1/2SM FG OVC003 08/08 A3007 RMK AO2 RVRNO
Temperature: 8.0°C ( 46°F)
Dewpoint: 8.0°C ( 46°F) [RH = 100%]
Pressure (altimeter):30.07 inches Hg (1018.4 mb)
Winds:from the S (190 degrees) at 6 MPH (5 knots; 2.6 m/s)
Visibility: 0.50 sm ( 0.80 km)
Ceiling:300 feet AGL
Clouds: overcast cloud deck at 300 feet AGL
Weather:FG (fog)
QC Flag:automated observation with no human augmentation
Text:KCVO 300756Z AUTO 17005KT 1/4SM FG OVC003 08/08 A3007 RMK AO2 RAE03 SLP183 P0000 T00780078 401060028 RVRNO
Temperature: 7.8°C ( 46°F)
Dewpoint: 7.8°C ( 46°F) [RH = 100%]
Pressure (altimeter):30.07 inches Hg (1018.4 mb) [Sea level pressure: 1018.3 mb]
Winds:from the S (170 degrees) at 6 MPH (5 knots; 2.6 m/s)
Visibility: 0.25 sm ( 0.40 km)
Ceiling:300 feet AGL
Clouds: overcast cloud deck at 300 feet AGL
Weather:FG (fog)
QC Flag:automated observation with no human augmentation
Text:KCVO 300751Z AUTO 17005KT 1/4SM FG OVC003 08/08 A3007 RMK AO2 RAE03 P0000 401060028 RVRNO
Temperature: 8.0°C ( 46°F)
Dewpoint: 8.0°C ( 46°F) [RH = 100%]
Pressure (altimeter):30.07 inches Hg (1018.4 mb)
Winds:from the S (170 degrees) at 6 MPH (5 knots; 2.6 m/s)
Visibility: 0.25 sm ( 0.40 km)
Ceiling:300 feet AGL
Clouds: overcast cloud deck at 300 feet AGL
Weather:FG (fog)
QC Flag:automated observation with no human augmentation
Text:KCVO 300714Z AUTO 16006KT 1/2SM FG OVC003 08/08 A3007 RMK AO2 RAE03 P0000 RVRNO
Temperature: 8.0°C ( 46°F)
Dewpoint: 8.0°C ( 46°F) [RH = 100%]
Pressure (altimeter):30.07 inches Hg (1018.4 mb)
Winds:from the SSE (160 degrees) at 7 MPH (6 knots; 3.1 m/s)
Visibility: 0.50 sm ( 0.80 km)
Ceiling:300 feet AGL
Clouds: overcast cloud deck at 300 feet AGL
Weather:FG (fog)
QC Flag:automated observation with no human augmentation
Text:KCVO 300706Z AUTO 20003KT 3/4SM BR OVC003 08/08 A3007 RMK AO2 RAE03 P0000 RVRNO
Temperature: 8.0°C ( 46°F)
Dewpoint: 8.0°C ( 46°F) [RH = 100%]
Pressure (altimeter):30.07 inches Hg (1018.4 mb)
Winds:from the SSW (200 degrees) at 3 MPH (3 knots; 1.5 m/s)
Visibility: 0.75 sm ( 1.21 km)
Ceiling:300 feet AGL
Clouds: overcast cloud deck at 300 feet AGL
Weather:BR (mist)
QC Flag:automated observation with no human augmentation
Text:KCVO 300656Z AUTO 19003KT 1/2SM -RA FG OVC003 08/08 A3007 RMK AO2 RAB52 SLP184 P0000 T00830083 RVRNO
Temperature: 8.3°C ( 47°F)
Dewpoint: 8.3°C ( 47°F) [RH = 100%]
Pressure (altimeter):30.07 inches Hg (1018.4 mb) [Sea level pressure: 1018.4 mb]
Winds:from the S (190 degrees) at 3 MPH (3 knots; 1.5 m/s)
Visibility: 0.50 sm ( 0.80 km)
Ceiling:300 feet AGL
Clouds: overcast cloud deck at 300 feet AGL
Weather:-RA FG (light rain, fog)
QC Flag:automated observation with no human augmentation
Text:KCVO 300641Z AUTO 17004KT 1/2SM FG OVC003 08/08 A3007 RMK AO2 RVRNO
Temperature: 8.0°C ( 46°F)
Dewpoint: 8.0°C ( 46°F) [RH = 100%]
Pressure (altimeter):30.07 inches Hg (1018.4 mb)
Winds:from the S (170 degrees) at 5 MPH (4 knots; 2.1 m/s)
Visibility: 0.50 sm ( 0.80 km)
Ceiling:300 feet AGL
Clouds: overcast cloud deck at 300 feet AGL
Weather:FG (fog)
QC Flag:automated observation with no human augmentation
Text:KCVO 300627Z AUTO 00000KT 3/4SM BR OVC003 08/08 A3008 RMK AO2 RVRNO
Temperature: 8.0°C ( 46°F)
Dewpoint: 8.0°C ( 46°F) [RH = 100%]
Pressure (altimeter):30.08 inches Hg (1018.7 mb)
Winds:calm
Visibility: 0.75 sm ( 1.21 km)
Ceiling:300 feet AGL
Clouds: overcast cloud deck at 300 feet AGL
Weather:BR (mist)
QC Flag:automated observation with no human augmentation
Text:KCVO 300603Z AUTO 20004KT 1/2SM FG OVC003 08/08 A3007 RMK AO2 RVRNO
Temperature: 8.0°C ( 46°F)
Dewpoint: 8.0°C ( 46°F) [RH = 100%]
Pressure (altimeter):30.07 inches Hg (1018.4 mb)
Winds:from the SSW (200 degrees) at 5 MPH (4 knots; 2.1 m/s)
Visibility: 0.50 sm ( 0.80 km)
Ceiling:300 feet AGL
Clouds: overcast cloud deck at 300 feet AGL
Weather:FG (fog)
QC Flag:automated observation with no human augmentation
Text:KCVO 300556Z AUTO 20004KT 3/4SM BR OVC003 08/08 A3007 RMK AO2 SLP184 T00830083 10106 20083 53001 RVRNO
Temperature: 8.3°C ( 47°F)
Dewpoint: 8.3°C ( 47°F) [RH = 100%]
Pressure (altimeter):30.07 inches Hg (1018.4 mb) [Sea level pressure: 1018.4 mb]
Winds:from the SSW (200 degrees) at 5 MPH (4 knots; 2.1 m/s)
Visibility: 0.75 sm ( 1.21 km)
Ceiling:300 feet AGL
Clouds: overcast cloud deck at 300 feet AGL
Weather:BR (mist)
QC Flag:automated observation with no human augmentation
Text:KCVO 300540Z AUTO 18003KT 3/4SM BR OVC003 08/08 A3007 RMK AO2 RVRNO
Temperature: 8.0°C ( 46°F)
Dewpoint: 8.0°C ( 46°F) [RH = 100%]
Pressure (altimeter):30.07 inches Hg (1018.4 mb)
Winds:from the S (180 degrees) at 3 MPH (3 knots; 1.5 m/s)
Visibility: 0.75 sm ( 1.21 km)
Ceiling:300 feet AGL
Clouds: overcast cloud deck at 300 feet AGL
Weather:BR (mist)
QC Flag:automated observation with no human augmentation
Text:KCVO 300456Z AUTO 21004KT 1/2SM FG OVC003 09/08 A3007 RMK AO2 SLP184 T00890083 RVRNO
Temperature: 8.9°C ( 48°F)
Dewpoint: 8.3°C ( 47°F) [RH = 96%]
Pressure (altimeter):30.07 inches Hg (1018.4 mb) [Sea level pressure: 1018.4 mb]
Winds:from the SSW (210 degrees) at 5 MPH (4 knots; 2.1 m/s)
Visibility: 0.50 sm ( 0.80 km)
Ceiling:300 feet AGL
Clouds: overcast cloud deck at 300 feet AGL
Weather:FG (fog)
QC Flag:automated observation with no human augmentation
Text:KCVO 300445Z AUTO 22004KT 1/2SM FG OVC003 09/09 A3007 RMK AO2 RVRNO
Temperature: 9.0°C ( 48°F)
Dewpoint: 9.0°C ( 48°F) [RH = 100%]
Pressure (altimeter):30.07 inches Hg (1018.4 mb)
Winds:from the SW (220 degrees) at 5 MPH (4 knots; 2.1 m/s)
Visibility: 0.50 sm ( 0.80 km)
Ceiling:300 feet AGL
Clouds: overcast cloud deck at 300 feet AGL
Weather:FG (fog)
QC Flag:automated observation with no human augmentation
Text:KCVO 300435Z AUTO 17005KT 1/4SM FG OVC003 09/09 A3007 RMK AO2 RVRNO
Temperature: 9.0°C ( 48°F)
Dewpoint: 9.0°C ( 48°F) [RH = 100%]
Pressure (altimeter):30.07 inches Hg (1018.4 mb)
Winds:from the S (170 degrees) at 6 MPH (5 knots; 2.6 m/s)
Visibility: 0.25 sm ( 0.40 km)
Ceiling:300 feet AGL
Clouds: overcast cloud deck at 300 feet AGL
Weather:FG (fog)
QC Flag:automated observation with no human augmentation
Text:KCVO 300406Z AUTO 00000KT 1/2SM FG OVC003 09/09 A3007 RMK AO2 RVRNO
Temperature: 9.0°C ( 48°F)
Dewpoint: 9.0°C ( 48°F) [RH = 100%]
Pressure (altimeter):30.07 inches Hg (1018.4 mb)
Winds:calm
Visibility: 0.50 sm ( 0.80 km)
Ceiling:300 feet AGL
Clouds: overcast cloud deck at 300 feet AGL
Weather:FG (fog)
QC Flag:automated observation with no human augmentation
Text:KCVO 300356Z AUTO 00000KT 3/4SM BR OVC003 09/09 A3007 RMK AO2 SLP184 T00890089 RVRNO
Temperature: 8.9°C ( 48°F)
Dewpoint: 8.9°C ( 48°F) [RH = 100%]
Pressure (altimeter):30.07 inches Hg (1018.4 mb) [Sea level pressure: 1018.4 mb]
Winds:calm
Visibility: 0.75 sm ( 1.21 km)
Ceiling:300 feet AGL
Clouds: overcast cloud deck at 300 feet AGL
Weather:BR (mist)
QC Flag:automated observation with no human augmentation
Text:KCVO 300342Z AUTO 00000KT 3/4SM BR OVC003 09/09 A3007 RMK AO2 RVRNO
Temperature: 9.0°C ( 48°F)
Dewpoint: 9.0°C ( 48°F) [RH = 100%]
Pressure (altimeter):30.07 inches Hg (1018.4 mb)
Winds:calm
Visibility: 0.75 sm ( 1.21 km)
Ceiling:300 feet AGL
Clouds: overcast cloud deck at 300 feet AGL
Weather:BR (mist)
QC Flag:automated observation with no human augmentation
Text:KCVO 300336Z AUTO 22004KT 1 1/2SM BR OVC003 09/09 A3007 RMK AO2
Temperature: 9.0°C ( 48°F)
Dewpoint: 9.0°C ( 48°F) [RH = 100%]
Pressure (altimeter):30.07 inches Hg (1018.4 mb)
Winds:from the SW (220 degrees) at 5 MPH (4 knots; 2.1 m/s)
Visibility: 1.50 sm ( 2.41 km)
Ceiling:300 feet AGL
Clouds: overcast cloud deck at 300 feet AGL
Weather:BR (mist)
QC Flag:automated observation with no human augmentation
Text:KCVO 300327Z AUTO 21003KT 2SM BR OVC003 09/09 A3007 RMK AO2
Temperature: 9.0°C ( 48°F)
Dewpoint: 9.0°C ( 48°F) [RH = 100%]
Pressure (altimeter):30.07 inches Hg (1018.4 mb)
Winds:from the SSW (210 degrees) at 3 MPH (3 knots; 1.5 m/s)
Visibility: 2.00 sm ( 3.22 km)
Ceiling:300 feet AGL
Clouds: overcast cloud deck at 300 feet AGL
Weather:BR (mist)
QC Flag:automated observation with no human augmentation
Text:KCVO 300256Z AUTO 26003KT 3SM BR OVC003 09/09 A3007 RMK AO2 SLP184 T00940089 56011
Temperature: 9.4°C ( 49°F)
Dewpoint: 8.9°C ( 48°F) [RH = 97%]
Pressure (altimeter):30.07 inches Hg (1018.4 mb) [Sea level pressure: 1018.4 mb]
Winds:from the W (260 degrees) at 3 MPH (3 knots; 1.5 m/s)
Visibility: 3 sm ( 5 km)
Ceiling:300 feet AGL
Clouds: overcast cloud deck at 300 feet AGL
Weather:BR (mist)
QC Flag:automated observation with no human augmentation
Text:KCVO 300248Z AUTO 00000KT 3SM BR OVC003 09/09 A3007 RMK AO2
Temperature: 9.0°C ( 48°F)
Dewpoint: 9.0°C ( 48°F) [RH = 100%]
Pressure (altimeter):30.07 inches Hg (1018.4 mb)
Winds:calm
Visibility: 3 sm ( 5 km)
Ceiling:300 feet AGL
Clouds: overcast cloud deck at 300 feet AGL
Weather:BR (mist)
QC Flag:automated observation with no human augmentation
Text:KCVO 300156Z AUTO 00000KT 6SM BR OVC005 10/09 A3007 RMK AO2 SLP186 T01000094
Temperature: 10.0°C ( 50°F)
Dewpoint: 9.4°C ( 49°F) [RH = 96%]
Pressure (altimeter):30.07 inches Hg (1018.4 mb) [Sea level pressure: 1018.6 mb]
Winds:calm
Visibility: 6 sm ( 10 km)
Ceiling:500 feet AGL
Clouds: overcast cloud deck at 500 feet AGL
Weather:BR (mist)
QC Flag:automated observation with no human augmentation
Text:KCVO 300056Z AUTO 00000KT 5SM BR OVC005 11/09 A3008 RMK AO2 SLP189 T01060094
Temperature: 10.6°C ( 51°F)
Dewpoint: 9.4°C ( 49°F) [RH = 92%]
Pressure (altimeter):30.08 inches Hg (1018.7 mb) [Sea level pressure: 1018.9 mb]
Winds:calm
Visibility: 5 sm ( 8 km)
Ceiling:500 feet AGL
Clouds: overcast cloud deck at 500 feet AGL
Weather:BR (mist)
QC Flag:automated observation with no human augmentation
Text:KCVO 292356Z AUTO 00000KT 8SM OVC005 11/09 A3010 RMK AO2 SLP195 T01060094 10106 20083 58010
Temperature: 10.6°C ( 51°F)
Dewpoint: 9.4°C ( 49°F) [RH = 92%]
Pressure (altimeter):30.10 inches Hg (1019.4 mb) [Sea level pressure: 1019.5 mb]
Winds:calm
Visibility: 8 sm ( 13 km)
Ceiling:500 feet AGL
Clouds: overcast cloud deck at 500 feet AGL
QC Flag:automated observation with no human augmentation
Text:KCVO 292256Z AUTO 00000KT 8SM OVC005 11/10 A3012 RMK AO2 SLP200 T01060100
Temperature: 10.6°C ( 51°F)
Dewpoint: 10.0°C ( 50°F) [RH = 96%]
Pressure (altimeter):30.12 inches Hg (1020.1 mb) [Sea level pressure: 1020.0 mb]
Winds:calm
Visibility: 8 sm ( 13 km)
Ceiling:500 feet AGL
Clouds: overcast cloud deck at 500 feet AGL
QC Flag:automated observation with no human augmentation
Text:KCVO 292156Z AUTO 00000KT 7SM OVC005 11/10 A3013 RMK AO2 SLP205 T01060100
Temperature: 10.6°C ( 51°F)
Dewpoint: 10.0°C ( 50°F) [RH = 96%]
Pressure (altimeter):30.13 inches Hg (1020.4 mb) [Sea level pressure: 1020.5 mb]
Winds:calm
Visibility: 7 sm ( 11 km)
Ceiling:500 feet AGL
Clouds: overcast cloud deck at 500 feet AGL
QC Flag:automated observation with no human augmentation
Text:KCVO 292056Z AUTO 00000KT 5SM BR OVC003 10/09 A3016 RMK AO2 SLP215 T01000094 58018
Temperature: 10.0°C ( 50°F)
Dewpoint: 9.4°C ( 49°F) [RH = 96%]
Pressure (altimeter):30.16 inches Hg (1021.4 mb) [Sea level pressure: 1021.5 mb]
Winds:calm
Visibility: 5 sm ( 8 km)
Ceiling:300 feet AGL
Clouds: overcast cloud deck at 300 feet AGL
Weather:BR (mist)
QC Flag:automated observation with no human augmentation
Text:KCVO 292015Z AUTO 00000KT 3SM BR OVC003 09/09 A3018 RMK AO2
Temperature: 9.0°C ( 48°F)
Dewpoint: 9.0°C ( 48°F) [RH = 100%]
Pressure (altimeter):30.18 inches Hg (1022.1 mb)
Winds:calm
Visibility: 3 sm ( 5 km)
Ceiling:300 feet AGL
Clouds: overcast cloud deck at 300 feet AGL
Weather:BR (mist)
QC Flag:automated observation with no human augmentation
Text:KCVO 291956Z AUTO 00000KT 3SM BR OVC001 09/09 A3019 RMK AO2 SLP226 T00940094
Temperature: 9.4°C ( 49°F)
Dewpoint: 9.4°C ( 49°F) [RH = 100%]
Pressure (altimeter):30.19 inches Hg (1022.4 mb) [Sea level pressure: 1022.6 mb]
Winds:calm
Visibility: 3 sm ( 5 km)
Ceiling:100 feet AGL
Clouds: overcast cloud deck at 100 feet AGL
Weather:BR (mist)
QC Flag:automated observation with no human augmentation
Text:KCVO 291856Z AUTO 10003KT 2SM BR OVC001 09/09 A3021 RMK AO2 SLP231 T00890089
Temperature: 8.9°C ( 48°F)
Dewpoint: 8.9°C ( 48°F) [RH = 100%]
Pressure (altimeter):30.21 inches Hg (1023.1 mb) [Sea level pressure: 1023.1 mb]
Winds:from the E (100 degrees) at 3 MPH (3 knots; 1.5 m/s)
Visibility: 2.00 sm ( 3.22 km)
Ceiling:100 feet AGL
Clouds: overcast cloud deck at 100 feet AGL
Weather:BR (mist)
QC Flag:automated observation with no human augmentation
Text:KCVO 291834Z AUTO 00000KT 2SM BR OVC001 09/09 A3021 RMK AO2
Temperature: 9.0°C ( 48°F)
Dewpoint: 9.0°C ( 48°F) [RH = 100%]
Pressure (altimeter):30.21 inches Hg (1023.1 mb)
Winds:calm
Visibility: 2.00 sm ( 3.22 km)
Ceiling:100 feet AGL
Clouds: overcast cloud deck at 100 feet AGL
Weather:BR (mist)
QC Flag:automated observation with no human augmentation
Text:KCVO 291756Z AUTO 00000KT 1 1/4SM BR OVC001 08/08 A3021 RMK AO2 SLP233 T00830083 10083 20039 58001
Temperature: 8.3°C ( 47°F)
Dewpoint: 8.3°C ( 47°F) [RH = 100%]
Pressure (altimeter):30.21 inches Hg (1023.1 mb) [Sea level pressure: 1023.3 mb]
Winds:calm
Visibility: 1.25 sm ( 2.01 km)
Ceiling:100 feet AGL
Clouds: overcast cloud deck at 100 feet AGL
Weather:BR (mist)
QC Flag:automated observation with no human augmentation
Text:KCVO 291741Z AUTO 00000KT 1 1/4SM BR OVC001 08/08 A3021 RMK AO2
Temperature: 8.0°C ( 46°F)
Dewpoint: 8.0°C ( 46°F) [RH = 100%]
Pressure (altimeter):30.21 inches Hg (1023.1 mb)
Winds:calm
Visibility: 1.25 sm ( 2.01 km)
Ceiling:100 feet AGL
Clouds: overcast cloud deck at 100 feet AGL
Weather:BR (mist)
QC Flag:automated observation with no human augmentation
Text:KCVO 291721Z AUTO 17003KT 1SM BR OVC001 08/08 A3021 RMK AO2 RVRNO
Temperature: 8.0°C ( 46°F)
Dewpoint: 8.0°C ( 46°F) [RH = 100%]
Pressure (altimeter):30.21 inches Hg (1023.1 mb)
Winds:from the S (170 degrees) at 3 MPH (3 knots; 1.5 m/s)
Visibility: 1.00 sm ( 1.61 km)
Ceiling:100 feet AGL
Clouds: overcast cloud deck at 100 feet AGL
Weather:BR (mist)
QC Flag:automated observation with no human augmentation
Text:KCVO 291656Z AUTO 00000KT 1SM BR OVC003 08/08 A3022 RMK AO2 SLP234 T00780078 RVRNO
Temperature: 7.8°C ( 46°F)
Dewpoint: 7.8°C ( 46°F) [RH = 100%]
Pressure (altimeter):30.22 inches Hg (1023.5 mb) [Sea level pressure: 1023.4 mb]
Winds:calm
Visibility: 1.00 sm ( 1.61 km)
Ceiling:300 feet AGL
Clouds: overcast cloud deck at 300 feet AGL
Weather:BR (mist)
QC Flag:automated observation with no human augmentation
Text:KCVO 291646Z AUTO 00000KT 3/4SM BR OVC003 07/07 A3022 RMK AO2 RVRNO
Temperature: 7.0°C ( 45°F)
Dewpoint: 7.0°C ( 45°F) [RH = 100%]
Pressure (altimeter):30.22 inches Hg (1023.5 mb)
Winds:calm
Visibility: 0.75 sm ( 1.21 km)
Ceiling:300 feet AGL
Clouds: overcast cloud deck at 300 feet AGL
Weather:BR (mist)
QC Flag:automated observation with no human augmentation